createdAt,value
2018-09-13T00:00:43.393Z,6.90
2018-09-13T00:01:43.547Z,5.50
2018-09-13T00:02:43.698Z,6.30
2018-09-13T00:03:43.851Z,6.60
2018-09-13T00:04:44.010Z,6.20
2018-09-13T00:05:44.167Z,7.20
2018-09-13T00:06:44.310Z,7.00
2018-09-13T00:07:44.464Z,6.80
2018-09-13T00:08:44.615Z,7.20
2018-09-13T00:09:44.774Z,6.40
2018-09-13T00:10:44.921Z,7.40
2018-09-13T00:11:45.076Z,7.80
2018-09-13T00:12:45.228Z,5.80
2018-09-13T00:13:45.378Z,7.40
2018-09-13T00:14:45.534Z,6.60
2018-09-13T00:15:45.681Z,6.60
2018-09-13T00:16:45.834Z,6.60
2018-09-13T00:17:45.988Z,6.80
2018-09-13T00:18:46.142Z,6.70
2018-09-13T00:19:46.298Z,6.30
2018-09-13T00:20:46.453Z,7.40
2018-09-13T00:21:46.603Z,6.20
2018-09-13T00:22:46.758Z,5.60
2018-09-13T00:23:46.906Z,4.80
2018-09-13T00:24:47.060Z,4.80
2018-09-13T00:25:47.224Z,4.50
2018-09-13T00:26:47.365Z,5.70
2018-09-13T00:27:47.517Z,5.00
2018-09-13T00:28:47.666Z,5.60
2018-09-13T00:29:47.820Z,5.60
2018-09-13T00:30:47.972Z,5.60
2018-09-13T00:31:48.123Z,4.20
2018-09-13T00:32:48.276Z,5.50
2018-09-13T00:33:48.430Z,5.60
2018-09-13T00:34:48.630Z,4.40
2018-09-13T00:35:48.780Z,4.40
2018-09-13T00:36:48.931Z,6.30
2018-09-13T00:37:49.084Z,5.70
2018-09-13T00:38:49.236Z,6.30
2018-09-13T00:39:49.386Z,5.60
2018-09-13T00:40:49.544Z,5.90
2018-09-13T00:41:49.695Z,5.80
2018-09-13T00:42:49.845Z,6.10
2018-09-13T00:43:49.996Z,5.90
2018-09-13T00:44:50.149Z,5.90
2018-09-13T00:45:50.300Z,6.70
2018-09-13T00:46:50.452Z,7.50
2018-09-13T00:47:50.603Z,5.80
2018-09-13T00:48:50.755Z,6.40
2018-09-13T00:49:50.907Z,8.10
2018-09-13T00:50:51.061Z,7.70
2018-09-13T00:51:51.248Z,5.70
2018-09-13T00:52:51.375Z,7.50
2018-09-13T00:53:51.517Z,8.00
2018-09-13T00:54:51.666Z,8.40
2018-09-13T00:55:51.853Z,8.20
2018-09-13T00:56:52.005Z,7.40
2018-09-13T00:57:52.157Z,7.30
2018-09-13T00:58:52.357Z,7.00
2018-09-13T00:59:52.462Z,7.60
2018-09-13T01:00:52.613Z,6.50
2018-09-13T01:01:52.767Z,7.60
2018-09-13T01:02:52.917Z,6.60
2018-09-13T01:03:53.073Z,6.60
2018-09-13T01:04:53.223Z,6.20
2018-09-13T01:05:53.375Z,7.20
2018-09-13T01:06:53.526Z,7.40
2018-09-13T01:07:53.676Z,6.60
2018-09-13T01:08:53.836Z,7.70
2018-09-13T01:09:53.982Z,6.70
2018-09-13T01:10:54.133Z,8.10
2018-09-13T01:11:54.288Z,7.60
2018-09-13T01:12:54.440Z,8.20
2018-09-13T01:13:54.593Z,8.20
2018-09-13T01:14:54.750Z,6.50
2018-09-13T01:15:54.899Z,6.40
2018-09-13T01:16:55.052Z,7.50
2018-09-13T01:17:55.208Z,5.60
2018-09-13T01:18:55.353Z,5.50
2018-09-13T01:19:55.506Z,5.80
2018-09-13T01:20:55.662Z,5.60
2018-09-13T01:21:55.809Z,5.50
2018-09-13T01:22:55.963Z,5.40
2018-09-13T01:23:56.119Z,7.20
2018-09-13T01:24:56.270Z,5.70
2018-09-13T01:25:56.422Z,5.90
2018-09-13T01:26:56.575Z,5.70
2018-09-13T01:27:56.725Z,6.40
2018-09-13T01:28:56.878Z,5.30
2018-09-13T01:29:57.027Z,5.50
2018-09-13T01:30:57.175Z,5.50
2018-09-13T01:31:57.327Z,8.10
2018-09-13T01:32:57.478Z,7.80
2018-09-13T01:33:57.628Z,7.10
2018-09-13T01:34:57.784Z,6.40
2018-09-13T01:35:57.941Z,7.70
2018-09-13T01:36:58.089Z,6.00
2018-09-13T01:37:58.240Z,5.70
2018-09-13T01:38:58.392Z,6.00
2018-09-13T01:39:58.544Z,5.00
2018-09-13T01:40:58.695Z,6.10
2018-09-13T01:41:58.850Z,5.30
2018-09-13T01:42:58.999Z,5.80
2018-09-13T01:43:59.154Z,5.40
2018-09-13T01:44:59.306Z,5.20
2018-09-13T01:45:59.460Z,5.10
2018-09-13T01:46:59.611Z,5.90
2018-09-13T01:47:59.763Z,7.70
2018-09-13T01:48:59.916Z,6.40
2018-09-13T01:50:00.069Z,6.20
2018-09-13T01:51:00.218Z,4.90
2018-09-13T01:52:00.374Z,5.90
2018-09-13T01:53:00.525Z,6.60
2018-09-13T01:54:00.675Z,5.00
2018-09-13T01:55:00.833Z,6.40
2018-09-13T01:56:00.980Z,5.00
2018-09-13T01:57:01.130Z,4.70
2018-09-13T01:58:01.284Z,6.30
2018-09-13T01:59:01.438Z,5.60
2018-09-13T02:00:01.590Z,7.10
2018-09-13T02:01:01.742Z,7.00
2018-09-13T02:02:01.895Z,6.30
2018-09-13T02:03:02.046Z,7.90
2018-09-13T02:04:02.198Z,6.20
2018-09-13T02:05:02.350Z,5.60
2018-09-13T02:06:02.503Z,5.70
2018-09-13T02:07:02.656Z,6.00
2018-09-13T02:08:02.808Z,5.50
2018-09-13T02:09:02.967Z,6.10
2018-09-13T02:10:03.122Z,7.60
2018-09-13T02:11:03.270Z,6.00
2018-09-13T02:12:03.422Z,6.40
2018-09-13T02:13:03.574Z,6.60
2018-09-13T02:14:03.727Z,7.40
2018-09-13T02:15:03.880Z,6.30
2018-09-13T02:16:04.033Z,5.80
2018-09-13T02:17:04.185Z,6.30
2018-09-13T02:18:04.337Z,6.90
2018-09-13T02:19:04.489Z,6.60
2018-09-13T02:20:04.643Z,5.40
2018-09-13T02:21:04.795Z,7.20
2018-09-13T02:22:04.947Z,5.50
2018-09-13T02:23:05.104Z,6.80
2018-09-13T02:24:05.257Z,5.40
2018-09-13T02:25:05.408Z,5.60
2018-09-13T02:26:05.561Z,7.70
2018-09-13T02:27:05.710Z,8.60
2018-09-13T02:28:05.864Z,7.30
2018-09-13T02:29:06.019Z,6.40
2018-09-13T02:30:06.170Z,6.30
2018-09-13T02:31:06.322Z,6.60
2018-09-13T02:32:06.479Z,6.70
2018-09-13T02:33:06.629Z,7.10
2018-09-13T02:34:06.799Z,6.30
2018-09-13T02:35:06.954Z,6.80
2018-09-13T02:36:07.104Z,6.50
2018-09-13T02:37:07.258Z,6.60
2018-09-13T02:38:07.411Z,6.70
2018-09-13T02:39:07.562Z,5.90
2018-09-13T02:40:07.718Z,7.50
2018-09-13T02:41:07.867Z,6.90
2018-09-13T02:42:08.024Z,7.10
2018-09-13T02:43:08.176Z,7.10
2018-09-13T02:44:08.327Z,6.40
2018-09-13T02:45:08.481Z,7.90
2018-09-13T02:46:08.638Z,7.30
2018-09-13T02:47:08.787Z,7.10
2018-09-13T02:48:08.940Z,6.20
2018-09-13T02:49:09.105Z,8.10
2018-09-13T02:50:09.248Z,6.00
2018-09-13T02:51:09.404Z,5.90
2018-09-13T02:52:09.552Z,6.10
2018-09-13T02:53:09.704Z,6.20
2018-09-13T02:54:09.857Z,5.70
2018-09-13T02:55:10.009Z,6.30
2018-09-13T02:56:10.163Z,7.40
2018-09-13T02:57:10.314Z,7.20
2018-09-13T02:58:10.469Z,6.20
2018-09-13T02:59:10.620Z,5.80
2018-09-13T03:00:10.772Z,6.10
2018-09-13T03:01:10.930Z,6.20
2018-09-13T03:02:11.077Z,5.70
2018-09-13T03:03:11.227Z,8.10
2018-09-13T03:04:11.383Z,6.70
2018-09-13T03:05:11.533Z,5.70
2018-09-13T03:06:11.688Z,6.30
2018-09-13T03:07:11.838Z,6.10
2018-09-13T03:08:12.026Z,6.30
2018-09-13T03:09:12.145Z,8.20
2018-09-13T03:10:12.297Z,6.00
2018-09-13T03:11:12.450Z,7.20
2018-09-13T03:12:12.608Z,6.00
2018-09-13T03:13:12.759Z,5.70
2018-09-13T03:14:12.910Z,7.10
2018-09-13T03:15:13.064Z,5.60
2018-09-13T03:16:13.215Z,7.20
2018-09-13T03:17:13.370Z,6.50
2018-09-13T03:18:13.535Z,5.90
2018-09-13T03:19:13.677Z,7.20
2018-09-13T03:20:13.827Z,6.20
2018-09-13T03:21:13.985Z,4.90
2018-09-13T03:22:14.133Z,5.20
2018-09-13T03:23:14.286Z,6.20
2018-09-13T03:24:14.438Z,6.30
2018-09-13T03:25:14.589Z,5.90
2018-09-13T03:26:14.742Z,6.00
2018-09-13T03:27:14.894Z,5.80
2018-09-13T03:28:15.047Z,5.20
2018-09-13T03:29:15.199Z,5.80
2018-09-13T03:30:15.353Z,4.80
2018-09-13T03:31:15.505Z,5.10
2018-09-13T03:32:15.660Z,6.00
2018-09-13T03:33:15.810Z,5.20
2018-09-13T03:34:15.963Z,5.30
2018-09-13T03:35:16.117Z,5.80
2018-09-13T03:36:16.271Z,5.20
2018-09-13T03:37:16.428Z,6.40
2018-09-13T03:38:16.577Z,5.20
2018-09-13T03:39:16.729Z,5.00
2018-09-13T03:40:16.883Z,5.80
2018-09-13T03:41:17.035Z,4.40
2018-09-13T03:42:17.187Z,5.00
2018-09-13T03:43:17.341Z,5.40
2018-09-13T03:44:17.493Z,6.60
2018-09-13T03:45:17.648Z,5.30
2018-09-13T03:46:17.804Z,6.50
2018-09-13T03:47:17.956Z,5.20
2018-09-13T03:48:18.109Z,8.00
2018-09-13T03:49:18.264Z,4.80
2018-09-13T03:50:18.417Z,6.30
2018-09-13T03:51:18.569Z,5.70
2018-09-13T03:52:18.723Z,7.30
2018-09-13T03:53:18.873Z,6.30
2018-09-13T03:54:19.027Z,5.60
2018-09-13T03:55:19.183Z,7.40
2018-09-13T03:56:19.333Z,4.40
2018-09-13T03:57:19.492Z,5.80
2018-09-13T03:58:19.647Z,5.00
2018-09-13T03:59:19.796Z,4.40
2018-09-13T04:00:19.949Z,6.70
2018-09-13T04:01:20.102Z,6.10
2018-09-13T04:02:20.257Z,8.70
2018-09-13T04:03:20.433Z,9.30
2018-09-13T04:04:20.561Z,7.00
2018-09-13T04:05:20.714Z,6.60
2018-09-13T04:06:20.868Z,5.30
2018-09-13T04:07:21.024Z,5.30
2018-09-13T04:08:21.174Z,6.50
2018-09-13T04:09:21.391Z,5.50
2018-09-13T04:10:21.476Z,7.90
2018-09-13T04:11:21.629Z,4.60
2018-09-13T04:12:21.779Z,6.10
2018-09-13T04:13:21.941Z,5.20
2018-09-13T04:14:22.105Z,4.70
2018-09-13T04:15:22.264Z,5.80
2018-09-13T04:16:22.412Z,5.80
2018-09-13T04:17:22.567Z,5.90
2018-09-13T04:18:22.715Z,6.20
2018-09-13T04:19:22.868Z,6.10
2018-09-13T04:20:23.021Z,7.40
2018-09-13T04:21:23.172Z,6.60
2018-09-13T04:22:23.334Z,7.40
2018-09-13T04:23:23.482Z,6.30
2018-09-13T04:24:23.631Z,7.10
2018-09-13T04:25:23.786Z,6.00
2018-09-13T04:26:23.937Z,7.80
2018-09-13T04:27:24.149Z,6.20
2018-09-13T04:28:24.257Z,5.10
2018-09-13T04:29:24.414Z,6.50
2018-09-13T04:30:24.555Z,6.50
2018-09-13T04:31:24.706Z,5.70
2018-09-13T04:32:24.859Z,7.00
2018-09-13T04:33:25.010Z,7.00
2018-09-13T04:34:25.165Z,7.10
2018-09-13T04:35:25.319Z,7.20
2018-09-13T04:36:25.470Z,7.40
2018-09-13T04:37:25.630Z,8.50
2018-09-13T04:38:25.778Z,8.30
2018-09-13T04:39:25.929Z,8.40
2018-09-13T04:40:26.081Z,9.30
2018-09-13T04:41:26.234Z,8.30
2018-09-13T04:42:26.384Z,8.70
2018-09-13T04:43:26.538Z,8.60
2018-09-13T04:44:27.591Z,7.90
2018-09-13T04:45:26.789Z,7.40
2018-09-13T04:46:26.937Z,6.90
2018-09-13T04:47:27.087Z,7.80
2018-09-13T04:48:27.239Z,8.90
2018-09-13T04:49:27.394Z,6.80
2018-09-13T04:50:27.547Z,7.20
2018-09-13T04:51:27.701Z,7.20
2018-09-13T04:52:27.855Z,6.80
2018-09-13T04:53:28.007Z,6.40
2018-09-13T04:54:28.163Z,8.80
2018-09-13T04:55:28.316Z,9.40
2018-09-13T04:56:28.470Z,8.90
2018-09-13T04:57:28.623Z,6.70
2018-09-13T04:58:28.775Z,7.60
2018-09-13T04:59:28.931Z,6.30
2018-09-13T05:00:29.082Z,7.70
2018-09-13T05:01:29.235Z,7.10
2018-09-13T05:02:29.392Z,7.80
2018-09-13T05:03:29.543Z,7.80
2018-09-13T05:04:29.700Z,6.80
2018-09-13T05:05:29.850Z,6.20
2018-09-13T05:06:30.058Z,5.50
2018-09-13T05:07:30.156Z,6.30
2018-09-13T05:08:30.309Z,5.10
2018-09-13T05:09:30.462Z,6.80
2018-09-13T05:10:30.615Z,6.10
2018-09-13T05:11:30.768Z,6.80
2018-09-13T05:12:30.923Z,7.60
2018-09-13T05:13:31.076Z,5.90
2018-09-13T05:14:31.259Z,6.30
2018-09-13T05:15:31.382Z,6.80
2018-09-13T05:16:31.534Z,7.70
2018-09-13T05:17:31.687Z,9.00
2018-09-13T05:18:31.841Z,6.10
2018-09-13T05:19:31.996Z,7.50
2018-09-13T05:20:32.148Z,6.20
2018-09-13T05:21:32.297Z,6.90
2018-09-13T05:22:32.453Z,7.80
2018-09-13T05:23:32.604Z,6.70
2018-09-13T05:24:32.758Z,6.70
2018-09-13T05:25:32.911Z,7.40
2018-09-13T05:26:33.065Z,5.50
2018-09-13T05:27:33.217Z,5.90
2018-09-13T05:28:33.371Z,7.70
2018-09-13T05:29:33.527Z,7.00
2018-09-13T05:30:33.680Z,7.10
2018-09-13T05:31:33.861Z,5.10
2018-09-13T05:32:33.988Z,5.30
2018-09-13T05:33:34.141Z,5.50
2018-09-13T05:34:34.294Z,5.70
2018-09-13T05:35:34.447Z,6.00
2018-09-13T05:36:34.602Z,5.90
2018-09-13T05:37:34.753Z,6.00
2018-09-13T05:38:34.907Z,6.90
2018-09-13T05:39:35.060Z,8.70
2018-09-13T05:40:35.213Z,8.00
2018-09-13T05:41:35.371Z,6.60
2018-09-13T05:42:35.522Z,7.00
2018-09-13T05:43:35.676Z,6.70
2018-09-13T05:44:35.834Z,5.40
2018-09-13T05:45:35.988Z,4.90
2018-09-13T05:46:36.138Z,5.10
2018-09-13T05:47:36.289Z,6.20
2018-09-13T05:48:36.440Z,7.20
2018-09-13T05:49:36.594Z,4.20
2018-09-13T05:50:36.746Z,6.70
2018-09-13T05:51:36.898Z,5.60
2018-09-13T05:52:37.049Z,6.10
2018-09-13T05:53:37.202Z,5.50
2018-09-13T05:54:37.363Z,5.30
2018-09-13T05:55:37.515Z,6.10
2018-09-13T05:56:37.663Z,5.70
2018-09-13T05:57:37.817Z,5.00
2018-09-13T05:58:37.969Z,6.30
2018-09-13T05:59:38.123Z,5.00
2018-09-13T06:00:38.274Z,7.40
2018-09-13T06:01:38.429Z,7.50
2018-09-13T06:02:38.584Z,6.90
2018-09-13T06:03:38.734Z,8.30
2018-09-13T06:04:38.887Z,8.00
2018-09-13T06:05:39.040Z,6.40
2018-09-13T06:06:39.192Z,6.50
2018-09-13T06:07:39.347Z,9.00
2018-09-13T06:08:39.499Z,9.00
2018-09-13T06:09:39.651Z,7.20
2018-09-13T06:10:39.808Z,7.20
2018-09-13T06:11:39.965Z,6.10
2018-09-13T06:12:40.110Z,7.60
2018-09-13T06:13:40.348Z,7.80
2018-09-13T06:14:40.415Z,7.70
2018-09-13T06:15:40.569Z,7.40
2018-09-13T06:16:40.722Z,9.60
2018-09-13T06:17:40.874Z,8.40
2018-09-13T06:18:41.029Z,7.80
2018-09-13T06:19:41.242Z,6.70
2018-09-13T06:20:41.335Z,5.40
2018-09-13T06:21:41.488Z,6.90
2018-09-13T06:22:41.641Z,5.20
2018-09-13T06:23:41.795Z,8.00
2018-09-13T06:24:41.949Z,6.20
2018-09-13T06:25:42.101Z,8.20
2018-09-13T06:26:42.253Z,8.70
2018-09-13T06:27:42.408Z,6.80
2018-09-13T06:28:42.563Z,6.10
2018-09-13T06:29:42.716Z,6.40
2018-09-13T06:30:42.871Z,6.80
2018-09-13T06:31:43.025Z,4.90
2018-09-13T06:32:43.180Z,5.30
2018-09-13T06:33:43.331Z,6.50
2018-09-13T06:34:43.488Z,7.60
2018-09-13T06:35:43.642Z,7.90
2018-09-13T06:36:43.793Z,8.20
2018-09-13T06:37:43.944Z,7.50
2018-09-13T06:38:44.102Z,6.20
2018-09-13T06:39:44.307Z,6.20
2018-09-13T06:40:44.406Z,6.70
2018-09-13T06:41:44.557Z,6.80
2018-09-13T06:42:44.712Z,7.10
2018-09-13T06:43:44.864Z,6.50
2018-09-13T06:44:45.020Z,6.30
2018-09-13T06:45:45.175Z,5.60
2018-09-13T06:46:45.347Z,6.70
2018-09-13T06:47:45.482Z,6.60
2018-09-13T06:48:45.634Z,6.20
2018-09-13T06:49:45.784Z,6.70
2018-09-13T06:50:45.955Z,6.00
2018-09-13T06:51:46.108Z,5.20
2018-09-13T06:52:46.271Z,6.50
2018-09-13T06:53:46.416Z,5.00
2018-09-13T06:54:46.570Z,4.80
2018-09-13T06:55:46.723Z,8.70
2018-09-13T06:56:46.877Z,6.00
2018-09-13T06:57:47.030Z,6.40
2018-09-13T06:58:47.183Z,5.60
2018-09-13T06:59:47.338Z,6.60
2018-09-13T07:00:47.490Z,6.30
2018-09-13T07:01:47.645Z,6.50
2018-09-13T07:02:47.802Z,6.30
2018-09-13T07:03:47.954Z,5.90
2018-09-13T07:04:48.107Z,5.80
2018-09-13T07:05:48.261Z,6.10
2018-09-13T07:06:48.413Z,6.50
2018-09-13T07:07:48.569Z,6.60
2018-09-13T07:08:48.724Z,5.10
2018-09-13T07:09:48.875Z,7.00
2018-09-13T07:10:49.030Z,7.00
2018-09-13T07:11:49.182Z,7.30
2018-09-13T07:12:49.338Z,5.70
2018-09-13T07:13:49.488Z,6.60
2018-09-13T07:14:49.641Z,6.90
2018-09-13T07:15:49.796Z,6.70
2018-09-13T07:16:49.952Z,6.70
2018-09-13T07:17:50.108Z,7.60
2018-09-13T07:18:50.258Z,6.50
2018-09-13T07:19:50.413Z,6.60
2018-09-13T07:20:50.570Z,7.30
2018-09-13T07:21:50.728Z,5.70
2018-09-13T07:22:50.876Z,6.80
2018-09-13T07:23:51.031Z,7.70
2018-09-13T07:24:51.185Z,6.50
2018-09-13T07:25:51.336Z,7.40
2018-09-13T07:26:51.490Z,7.30
2018-09-13T07:27:51.644Z,6.30
2018-09-13T07:28:51.797Z,7.40
2018-09-13T07:29:51.953Z,7.50
2018-09-13T07:30:52.144Z,8.20
2018-09-13T07:31:52.286Z,9.40
2018-09-13T07:32:52.442Z,9.30
2018-09-13T07:33:52.590Z,7.80
2018-09-13T07:34:52.744Z,9.10
2018-09-13T07:35:52.899Z,7.30
2018-09-13T07:36:53.123Z,8.20
2018-09-13T07:37:53.207Z,8.00
2018-09-13T07:38:53.368Z,8.90
2018-09-13T07:39:53.512Z,8.50
2018-09-13T07:40:53.666Z,8.00
2018-09-13T07:41:53.824Z,10.30
2018-09-13T07:42:54.031Z,10.70
2018-09-13T07:43:54.130Z,9.30
2018-09-13T07:44:54.284Z,8.50
2018-09-13T07:45:54.438Z,11.20
2018-09-13T07:46:54.594Z,9.70
2018-09-13T07:47:54.745Z,8.30
2018-09-13T07:48:54.942Z,9.50
2018-09-13T07:49:55.277Z,9.60
2018-09-13T07:50:55.209Z,10.60
2018-09-13T07:51:55.365Z,10.20
2018-09-13T07:52:55.521Z,10.00
2018-09-13T07:53:55.676Z,10.40
2018-09-13T07:54:55.834Z,9.90
2018-09-13T07:55:55.986Z,8.20
2018-09-13T07:56:56.141Z,11.40
2018-09-13T07:57:56.299Z,9.90
2018-09-13T07:58:56.449Z,11.00
2018-09-13T07:59:56.604Z,11.10
2018-09-13T08:00:56.760Z,10.70
2018-09-13T08:01:56.915Z,10.60
2018-09-13T08:02:57.068Z,10.20
2018-09-13T08:03:57.223Z,10.50
2018-09-13T08:04:57.439Z,12.30
2018-09-13T08:05:57.531Z,9.90
2018-09-13T08:06:57.685Z,9.80
2018-09-13T08:07:57.838Z,11.30
2018-09-13T08:08:57.998Z,11.10
2018-09-13T08:09:58.154Z,10.00
2018-09-13T08:10:58.307Z,9.90
2018-09-13T08:11:58.521Z,10.70
2018-09-13T08:12:58.611Z,9.70
2018-09-13T08:13:58.766Z,10.60
2018-09-13T08:14:58.917Z,10.60
2018-09-13T08:15:59.156Z,10.60
2018-09-13T08:16:59.233Z,11.70
2018-09-13T08:17:59.384Z,9.90
2018-09-13T08:18:59.543Z,11.00
2018-09-13T08:19:59.698Z,10.50
2018-09-13T08:20:59.851Z,12.10
2018-09-13T08:22:00.012Z,11.50
2018-09-13T08:23:00.163Z,11.40
2018-09-13T08:24:00.316Z,8.90
2018-09-13T08:25:00.477Z,10.70
2018-09-13T08:26:00.629Z,10.00
2018-09-13T08:27:00.806Z,12.60
2018-09-13T08:28:00.936Z,9.60
2018-09-13T08:29:01.089Z,10.60
2018-09-13T08:30:01.248Z,12.30
2018-09-13T08:31:01.406Z,9.80
2018-09-13T08:32:01.553Z,10.60
2018-09-13T08:33:01.708Z,11.50
2018-09-13T08:34:01.863Z,11.30
2018-09-13T08:35:02.191Z,10.20
2018-09-13T08:36:02.173Z,10.90
2018-09-13T08:37:02.352Z,12.10
2018-09-13T08:38:02.482Z,10.30
2018-09-13T08:39:02.636Z,11.30
2018-09-13T08:40:02.812Z,10.10
2018-09-13T08:41:02.948Z,9.50
2018-09-13T08:42:03.104Z,10.90
2018-09-13T08:43:03.269Z,11.90
2018-09-13T08:44:03.412Z,10.30
2018-09-13T08:45:03.571Z,10.30
2018-09-13T08:46:03.725Z,12.20
2018-09-13T08:47:03.878Z,10.80
2018-09-13T08:48:04.036Z,10.90
2018-09-13T08:49:04.187Z,9.50
2018-09-13T08:50:04.343Z,10.60
2018-09-13T08:51:04.500Z,11.50
2018-09-13T08:52:04.711Z,10.80
2018-09-13T08:53:04.807Z,11.10
2018-09-13T08:54:04.961Z,11.00
2018-09-13T08:55:05.122Z,11.00
2018-09-13T08:56:05.269Z,11.00
2018-09-13T08:57:05.425Z,12.00
2018-09-13T08:58:05.580Z,10.80
2018-09-13T08:59:05.734Z,11.40
2018-09-13T09:00:05.890Z,10.50
2018-09-13T09:01:06.049Z,12.70
2018-09-13T09:02:06.201Z,10.90
2018-09-13T09:03:06.356Z,10.80
2018-09-13T09:04:06.511Z,12.70
2018-09-13T09:05:06.667Z,11.80
2018-09-13T09:06:06.894Z,11.20
2018-09-13T09:07:06.980Z,11.20
2018-09-13T09:08:07.133Z,11.30
2018-09-13T09:09:07.289Z,11.50
2018-09-13T09:10:07.447Z,11.90
2018-09-13T09:11:07.603Z,11.60
2018-09-13T09:12:07.761Z,11.90
2018-09-13T09:13:07.913Z,10.50
2018-09-13T09:14:08.067Z,12.20
2018-09-13T09:15:08.222Z,11.20
2018-09-13T09:16:08.379Z,11.90
2018-09-13T09:17:08.532Z,12.30
2018-09-13T09:18:08.690Z,11.20
2018-09-13T09:19:08.846Z,10.20
2018-09-13T09:20:09.006Z,10.90
2018-09-13T09:21:09.161Z,12.50
2018-09-13T09:22:09.316Z,10.40
2018-09-13T09:23:09.474Z,9.60
2018-09-13T09:24:09.696Z,10.50
2018-09-13T09:25:09.784Z,10.20
2018-09-13T09:26:09.938Z,10.70
2018-09-13T09:27:10.096Z,11.50
2018-09-13T09:28:10.251Z,10.20
2018-09-13T09:29:10.434Z,9.80
2018-09-13T09:30:10.563Z,8.80
2018-09-13T09:31:10.736Z,9.90
2018-09-13T09:32:10.890Z,11.80
2018-09-13T09:33:11.048Z,11.20
2018-09-13T09:34:11.202Z,9.90
2018-09-13T09:35:11.358Z,9.10
2018-09-13T09:36:11.514Z,11.60
2018-09-13T09:37:11.669Z,9.40
2018-09-13T09:38:11.819Z,10.30
2018-09-13T09:39:11.977Z,11.20
2018-09-13T09:40:12.132Z,11.40
2018-09-13T09:41:12.287Z,10.80
2018-09-13T09:42:12.443Z,10.50
2018-09-13T09:43:12.600Z,11.50
2018-09-13T09:44:12.774Z,10.30
2018-09-13T09:45:12.907Z,10.20
2018-09-13T09:46:13.065Z,11.10
2018-09-13T09:47:13.214Z,10.10
2018-09-13T09:48:13.434Z,11.00
2018-09-13T09:49:13.524Z,12.00
2018-09-13T09:50:13.688Z,10.60
2018-09-13T09:51:13.840Z,10.70
2018-09-13T09:52:14.036Z,10.50
2018-09-13T09:53:14.148Z,10.40
2018-09-13T09:54:14.305Z,10.90
2018-09-13T09:55:14.459Z,10.20
2018-09-13T09:56:14.671Z,8.60
2018-09-13T09:57:14.770Z,10.20
2018-09-13T09:58:14.926Z,8.80
2018-09-13T09:59:15.082Z,10.10
2018-09-13T10:00:15.242Z,8.70
2018-09-13T10:01:15.396Z,10.40
2018-09-13T10:02:15.551Z,9.80
2018-09-13T10:03:15.708Z,10.10
2018-09-13T10:04:15.921Z,9.50
2018-09-13T10:05:16.017Z,8.90
2018-09-13T10:06:16.172Z,9.50
2018-09-13T10:07:16.329Z,7.90
2018-09-13T10:08:16.483Z,9.80
2018-09-13T10:09:16.639Z,11.90
2018-09-13T10:10:16.795Z,10.70
2018-09-13T10:11:16.948Z,11.50
2018-09-13T10:12:17.103Z,11.60
2018-09-13T10:13:17.262Z,10.30
2018-09-13T10:14:17.415Z,10.00
2018-09-13T10:15:17.569Z,11.20
2018-09-13T10:16:17.780Z,10.80
2018-09-13T10:17:17.887Z,9.00
2018-09-13T10:18:18.046Z,9.90
2018-09-13T10:19:18.201Z,10.00
2018-09-13T10:20:18.355Z,11.70
2018-09-13T10:21:18.513Z,8.30
2018-09-13T10:22:18.668Z,10.60
2018-09-13T10:23:18.822Z,10.60
2018-09-13T10:24:18.983Z,7.80
2018-09-13T10:25:19.140Z,10.00
2018-09-13T10:26:19.295Z,9.80
2018-09-13T10:27:19.451Z,8.70
2018-09-13T10:28:19.608Z,8.70
2018-09-13T10:29:19.837Z,10.40
2018-09-13T10:30:19.921Z,9.20
2018-09-13T10:31:20.078Z,9.40
2018-09-13T10:32:20.238Z,9.90
2018-09-13T10:33:20.396Z,9.60
2018-09-13T10:34:20.553Z,8.80
2018-09-13T10:35:20.712Z,9.00
2018-09-13T10:36:20.872Z,9.30
2018-09-13T10:37:21.025Z,9.30
2018-09-13T10:38:21.181Z,7.70
2018-09-13T10:39:21.338Z,8.80
2018-09-13T10:40:21.493Z,9.10
2018-09-13T10:41:21.653Z,8.30
2018-09-13T10:42:21.809Z,9.90
2018-09-13T10:43:21.962Z,10.40
2018-09-13T10:44:22.115Z,10.60
2018-09-13T10:45:22.276Z,9.70
2018-09-13T10:46:22.430Z,10.10
2018-09-13T10:47:22.612Z,8.10
2018-09-13T10:48:22.745Z,10.20
2018-09-13T10:49:22.900Z,10.30
2018-09-13T10:50:23.053Z,9.20
2018-09-13T10:51:23.204Z,8.00
2018-09-13T10:52:23.443Z,9.10
2018-09-13T10:53:23.518Z,8.80
2018-09-13T10:54:23.706Z,8.70
2018-09-13T10:55:23.912Z,9.10
2018-09-13T10:56:23.996Z,8.40
2018-09-13T10:57:24.154Z,9.00
2018-09-13T10:58:24.312Z,8.10
2018-09-13T10:59:24.471Z,8.40
2018-09-13T11:00:24.625Z,12.00
2018-09-13T11:01:24.783Z,8.40
2018-09-13T11:02:24.942Z,9.10
2018-09-13T11:03:25.101Z,9.80
2018-09-13T11:04:25.344Z,9.40
2018-09-13T11:05:25.413Z,9.60
2018-09-13T11:06:25.573Z,8.80
2018-09-13T11:07:25.728Z,9.30
2018-09-13T11:08:25.886Z,8.30
2018-09-13T11:09:26.041Z,8.20
2018-09-13T11:10:26.248Z,9.10
2018-09-13T11:11:26.418Z,8.20
2018-09-13T11:12:26.517Z,10.30
2018-09-13T11:13:26.670Z,10.30
2018-09-13T11:14:26.827Z,9.40
2018-09-13T11:15:26.985Z,10.00
2018-09-13T11:16:27.139Z,9.30
2018-09-13T11:17:27.297Z,8.70
2018-09-13T11:18:27.457Z,10.10
2018-09-13T11:19:27.617Z,8.90
2018-09-13T11:20:27.774Z,9.70
2018-09-13T11:21:27.926Z,8.40
2018-09-13T11:22:28.083Z,8.50
2018-09-13T11:23:28.240Z,9.40
2018-09-13T11:24:28.432Z,8.30
2018-09-13T11:25:28.552Z,8.50
2018-09-13T11:26:28.710Z,8.20
2018-09-13T11:27:28.863Z,8.10
2018-09-13T11:28:29.024Z,7.60
2018-09-13T11:29:29.180Z,8.10
2018-09-13T11:30:29.372Z,9.40
2018-09-13T11:31:29.491Z,7.60
2018-09-13T11:32:29.658Z,8.80
2018-09-13T11:33:29.807Z,11.10
2018-09-13T11:34:29.964Z,7.90
2018-09-13T11:35:30.121Z,9.50
2018-09-13T11:36:30.279Z,13.00
2018-09-13T11:37:30.433Z,10.00
2018-09-13T11:38:30.590Z,10.00
2018-09-13T11:39:30.746Z,11.40
2018-09-13T11:40:31.081Z,10.30
2018-09-13T11:41:31.057Z,8.30
2018-09-13T11:42:31.214Z,8.70
2018-09-13T11:43:31.377Z,8.70
2018-09-13T11:44:31.531Z,7.40
2018-09-13T11:45:31.686Z,8.50
2018-09-13T11:46:31.838Z,10.20
2018-09-13T11:47:31.995Z,8.00
2018-09-13T11:48:32.153Z,9.20
2018-09-13T11:49:32.309Z,9.10
2018-09-13T11:50:32.466Z,9.50
2018-09-13T11:51:32.621Z,9.00
2018-09-13T11:52:32.779Z,10.80
2018-09-13T11:53:32.938Z,11.30
2018-09-13T11:54:33.094Z,9.80
2018-09-13T11:55:33.251Z,10.50
2018-09-13T11:56:33.410Z,10.00
2018-09-13T11:57:33.567Z,7.40
2018-09-13T11:58:33.727Z,9.10
2018-09-13T11:59:33.886Z,9.90
2018-09-13T12:00:34.042Z,8.30
2018-09-13T12:01:34.199Z,9.00
2018-09-13T12:02:34.355Z,9.50
2018-09-13T12:03:34.510Z,9.60
2018-09-13T12:04:34.663Z,8.10
2018-09-13T12:05:34.819Z,8.60
2018-09-13T12:06:34.976Z,8.00
2018-09-13T12:07:35.132Z,10.20
2018-09-13T12:08:35.286Z,8.20
2018-09-13T12:09:35.477Z,10.50
2018-09-13T12:10:35.601Z,10.40
2018-09-13T12:11:35.756Z,9.10
2018-09-13T12:12:35.913Z,8.80
2018-09-13T12:13:36.070Z,8.60
2018-09-13T12:14:36.225Z,8.20
2018-09-13T12:15:36.381Z,8.00
2018-09-13T12:16:36.535Z,9.40
2018-09-13T12:17:36.696Z,8.90
2018-09-13T12:18:36.847Z,11.20
2018-09-13T12:19:37.004Z,9.90
2018-09-13T12:20:37.164Z,8.80
2018-09-13T12:21:37.317Z,9.40
2018-09-13T12:22:37.534Z,9.80
2018-09-13T12:23:37.640Z,7.80
2018-09-13T12:24:37.798Z,8.20
2018-09-13T12:25:37.954Z,11.10
2018-09-13T12:26:38.111Z,9.40
2018-09-13T12:27:38.318Z,9.60
2018-09-13T12:28:38.426Z,13.00
2018-09-13T12:29:38.580Z,10.30
2018-09-13T12:30:38.734Z,9.60
2018-09-13T12:31:38.890Z,9.50
2018-09-13T12:32:39.057Z,9.60
2018-09-13T12:33:39.206Z,8.30
2018-09-13T12:34:39.360Z,8.60
2018-09-13T12:35:39.515Z,8.50
2018-09-13T12:36:39.671Z,8.50
2018-09-13T12:37:39.830Z,8.60
2018-09-13T12:38:39.984Z,7.40
2018-09-13T12:39:40.142Z,8.80
2018-09-13T12:40:40.299Z,9.80
2018-09-13T12:41:40.458Z,7.30
2018-09-13T12:42:40.615Z,9.30
2018-09-13T12:43:40.771Z,10.30
2018-09-13T12:44:40.942Z,8.70
2018-09-13T12:45:41.085Z,8.50
2018-09-13T12:46:41.243Z,9.30
2018-09-13T12:47:41.401Z,8.30
2018-09-13T12:48:41.557Z,8.20
2018-09-13T12:49:41.717Z,8.90
2018-09-13T12:50:41.870Z,9.10
2018-09-13T12:51:42.028Z,9.00
2018-09-13T12:52:42.185Z,8.60
2018-09-13T12:53:42.343Z,7.80
2018-09-13T12:54:42.498Z,10.80
2018-09-13T12:55:42.660Z,10.40
2018-09-13T12:56:42.867Z,11.60
2018-09-13T12:57:42.981Z,14.90
2018-09-13T12:58:43.135Z,11.40
2018-09-13T12:59:43.290Z,9.90
2018-09-13T13:00:43.451Z,9.70
2018-09-13T13:01:43.603Z,12.20
2018-09-13T13:02:43.763Z,9.00
2018-09-13T13:03:43.918Z,11.30
2018-09-13T13:04:44.079Z,8.70
2018-09-13T13:05:44.235Z,10.60
2018-09-13T13:06:44.440Z,12.20
2018-09-13T13:07:44.548Z,11.10
2018-09-13T13:08:44.719Z,9.60
2018-09-13T13:09:44.862Z,8.90
2018-09-13T13:10:45.021Z,11.10
2018-09-13T13:11:45.181Z,12.60
2018-09-13T13:12:45.343Z,10.70
2018-09-13T13:13:45.564Z,10.00
2018-09-13T13:14:45.605Z,11.10